createdAt,value
2024-03-12T00:00:24.231Z,100073.56
2024-03-12T00:02:51.614Z,100071.97
2024-03-12T00:05:22.248Z,100068.53
2024-03-12T00:07:52.341Z,100067.75
2024-03-12T00:10:23.003Z,100071.81
2024-03-12T00:12:53.244Z,100073.50
2024-03-12T00:15:24.533Z,100071.81
2024-03-12T00:17:55.060Z,100067.50
2024-03-12T00:20:31.652Z,100068.47
2024-03-12T00:23:00.990Z,100058.31
2024-03-12T00:25:29.781Z,100068.53
2024-03-12T00:27:57.431Z,100069.44
2024-03-12T00:30:28.879Z,100075.19
2024-03-12T00:33:02.498Z,100074.25
2024-03-12T00:35:35.485Z,100078.41
2024-03-12T00:38:05.416Z,100070.16
2024-03-12T00:40:34.956Z,100079.19
2024-03-12T00:43:04.345Z,100075.66
2024-03-12T00:45:38.648Z,100075.66
2024-03-12T00:48:10.892Z,100077.44
2024-03-12T00:50:39.374Z,100080.09
2024-03-12T00:53:09.332Z,100073.44
2024-03-12T00:55:42.010Z,100074.38
2024-03-12T00:58:13.755Z,100074.56
2024-03-12T01:00:42.319Z,100079.81
2024-03-12T01:03:13.224Z,100082.47
2024-03-12T01:05:41.151Z,100086.63
2024-03-12T01:08:13.309Z,100079.06
2024-03-12T01:10:41.008Z,100082.34
2024-03-12T01:13:11.374Z,100082.41
2024-03-12T01:15:41.288Z,100079.88
2024-03-12T01:18:10.109Z,100083.28
2024-03-12T01:20:38.128Z,100080.69
2024-03-12T01:23:07.262Z,100072.25
2024-03-12T01:25:38.174Z,100071.28
2024-03-12T01:28:08.121Z,100076.41
2024-03-12T01:30:38.088Z,100079.06
2024-03-12T01:33:09.654Z,100066.56
2024-03-12T01:35:41.158Z,100075.00
2024-03-12T01:38:11.303Z,100069.88
2024-03-12T01:40:42.961Z,100076.66
2024-03-12T01:43:10.938Z,100077.44
2024-03-12T01:45:39.729Z,100082.47
2024-03-12T01:48:09.776Z,100084.09
2024-03-12T01:50:38.899Z,100086.50
2024-03-12T01:53:07.555Z,100096.31
2024-03-12T01:55:38.814Z,100087.78
2024-03-12T01:58:08.033Z,100093.72
2024-03-12T02:00:35.769Z,100090.31
2024-03-12T02:03:03.344Z,100087.78
2024-03-12T02:05:31.047Z,100093.59
2024-03-12T02:07:58.671Z,100098.69
2024-03-12T02:10:26.494Z,100093.81
2024-03-12T02:12:54.141Z,100098.91
2024-03-12T02:15:23.719Z,100095.66
2024-03-12T02:17:55.761Z,100103.53
2024-03-12T02:20:24.006Z,100102.78
2024-03-12T02:22:54.548Z,100106.16
2024-03-12T02:25:24.109Z,100107.81
2024-03-12T02:27:54.336Z,100111.19
2024-03-12T02:30:22.829Z,100111.13
2024-03-12T02:32:51.202Z,100111.06
2024-03-12T02:35:18.793Z,100111.78
2024-03-12T02:37:46.485Z,100112.47
2024-03-12T02:40:15.429Z,100108.97
2024-03-12T02:42:46.619Z,100106.41
2024-03-12T02:45:16.570Z,100119.06
2024-03-12T02:47:45.440Z,100115.66
2024-03-12T02:50:13.124Z,100115.66
2024-03-12T02:52:43.112Z,100119.06
2024-03-12T02:55:11.099Z,100122.47
2024-03-12T02:57:38.912Z,100122.47
2024-03-12T03:00:16.088Z,100115.78
2024-03-12T03:02:45.199Z,100115.78
2024-03-12T03:05:13.469Z,100125.72
2024-03-12T03:07:43.345Z,100111.72
2024-03-12T03:10:12.644Z,100130.16
2024-03-12T03:12:43.033Z,100127.88
2024-03-12T03:15:14.117Z,100131.06
2024-03-12T03:17:43.957Z,100131.06
2024-03-12T03:20:18.003Z,100136.97
2024-03-12T03:22:48.351Z,100132.09
2024-03-12T03:25:16.551Z,100132.09
2024-03-12T03:27:45.027Z,100126.41
2024-03-12T03:30:19.345Z,100134.09
2024-03-12T03:32:47.701Z,100130.69
2024-03-12T03:35:15.330Z,100136.38
2024-03-12T03:37:44.140Z,100138.66
2024-03-12T03:40:13.122Z,100138.59
2024-03-12T03:42:41.591Z,100139.38
2024-03-12T03:45:09.637Z,100141.78
2024-03-12T03:47:38.675Z,100147.50
2024-03-12T03:50:08.770Z,100150.09
2024-03-12T03:52:38.221Z,100145.81
2024-03-12T03:55:06.865Z,100154.97
2024-03-12T03:57:34.204Z,100152.53
2024-03-12T04:00:03.004Z,100155.94
2024-03-12T04:02:33.015Z,100155.19
2024-03-12T04:05:04.283Z,100163.03
2024-03-12T04:07:31.599Z,100159.78
2024-03-12T04:09:58.957Z,100158.16
2024-03-12T04:12:26.701Z,100160.50
2024-03-12T04:14:54.150Z,100158.69
2024-03-12T04:17:23.357Z,100163.50
2024-03-12T04:19:51.026Z,100158.53
2024-03-12T04:22:20.576Z,100172.09
2024-03-12T04:24:48.167Z,100167.94
2024-03-12T04:27:16.411Z,100177.03
2024-03-12T04:29:44.038Z,100179.41
2024-03-12T04:32:11.280Z,100175.94
2024-03-12T04:34:38.690Z,100179.34
2024-03-12T04:37:06.298Z,100186.16
2024-03-12T04:39:35.181Z,100181.13
2024-03-12T04:42:04.111Z,100187.63
2024-03-12T04:44:31.411Z,100194.25
2024-03-12T04:46:59.231Z,100193.50
2024-03-12T04:49:26.796Z,100200.06
2024-03-12T04:51:54.309Z,100204.16
2024-03-12T04:54:21.650Z,100198.09
2024-03-12T04:56:53.110Z,100207.22
2024-03-12T04:59:20.409Z,100203.06
2024-03-12T05:01:49.848Z,100204.47
2024-03-12T05:04:22.592Z,100209.34
2024-03-12T05:06:51.322Z,100203.50
2024-03-12T05:09:19.642Z,100214.16
2024-03-12T05:11:47.106Z,100214.75
2024-03-12T05:14:16.783Z,100223.88
2024-03-12T05:16:44.181Z,100217.09
2024-03-12T05:19:12.835Z,100216.38
2024-03-12T05:21:40.535Z,100217.94
2024-03-12T05:24:07.911Z,100217.69
2024-03-12T05:26:37.806Z,100223.25
2024-03-12T05:29:05.338Z,100222.97
2024-03-12T05:31:35.983Z,100221.84
2024-03-12T05:34:04.252Z,100223.34
2024-03-12T05:36:41.981Z,100226.44
2024-03-12T05:39:20.161Z,100229.53
2024-03-12T05:42:10.664Z,100239.34
2024-03-12T05:44:56.636Z,100232.50
2024-03-12T05:47:45.517Z,100227.97
2024-03-12T05:50:18.371Z,100236.94
2024-03-12T05:52:49.774Z,100241.50
2024-03-12T05:55:17.435Z,100235.16
2024-03-12T05:57:46.128Z,100229.63
2024-03-12T06:00:14.182Z,100244.69
2024-03-12T06:02:43.280Z,100242.41
2024-03-12T06:05:14.242Z,100235.66
2024-03-12T06:07:42.013Z,100238.91
2024-03-12T06:10:10.384Z,100237.94
2024-03-12T06:12:37.926Z,100245.44
2024-03-12T06:15:08.523Z,100245.09
2024-03-12T06:17:36.047Z,100240.63
2024-03-12T06:20:11.358Z,100245.28
2024-03-12T06:22:39.157Z,100249.91
2024-03-12T06:25:10.656Z,100253.69
2024-03-12T06:27:41.817Z,100253.28
2024-03-12T06:30:09.806Z,100247.16
2024-03-12T06:32:37.133Z,100249.34
2024-03-12T06:35:06.561Z,100244.69
2024-03-12T06:37:34.357Z,100254.47
2024-03-12T06:40:04.301Z,100249.41
2024-03-12T06:42:32.182Z,100249.97
2024-03-12T06:45:01.776Z,100252.09
2024-03-12T06:47:38.407Z,100250.63
2024-03-12T06:50:11.504Z,100251.44
2024-03-12T06:52:38.798Z,100259.91
2024-03-12T06:55:06.799Z,100255.28
2024-03-12T06:57:35.627Z,100246.88
2024-03-12T07:00:10.885Z,100242.16
2024-03-12T07:02:41.936Z,100249.25
2024-03-12T07:05:11.132Z,100252.84
2024-03-12T07:07:45.248Z,100257.38
2024-03-12T07:10:13.062Z,100250.47
2024-03-12T07:12:40.808Z,100254.97
2024-03-12T07:15:08.844Z,100254.72
2024-03-12T07:17:36.233Z,100260.22
2024-03-12T07:20:11.480Z,100260.56
2024-03-12T07:22:46.402Z,100262.38
2024-03-12T07:25:14.774Z,100256.09
2024-03-12T07:27:42.658Z,100252.50
2024-03-12T07:30:11.804Z,100254.69
2024-03-12T07:32:39.482Z,100262.91
2024-03-12T07:35:07.909Z,100255.94
2024-03-12T07:37:42.111Z,100250.63
2024-03-12T07:40:13.188Z,100262.66
2024-03-12T07:42:42.870Z,100260.03
2024-03-12T07:45:14.262Z,100263.00
2024-03-12T07:47:41.934Z,100268.25
2024-03-12T07:50:10.527Z,100266.25
2024-03-12T07:52:37.984Z,100262.03
2024-03-12T07:55:07.522Z,100258.88
2024-03-12T07:57:36.941Z,100258.44
2024-03-12T08:00:16.154Z,100259.25
2024-03-12T08:02:43.897Z,100267.66
2024-03-12T08:05:12.350Z,100259.88
2024-03-12T08:07:40.293Z,100261.00
2024-03-12T08:10:11.198Z,100260.56
2024-03-12T08:12:41.213Z,100257.91
2024-03-12T08:15:14.705Z,100254.00
2024-03-12T08:17:44.074Z,100259.28
2024-03-12T08:20:15.031Z,100258.38
2024-03-12T08:22:42.981Z,100263.78
2024-03-12T08:25:13.227Z,100262.94
2024-03-12T08:27:42.232Z,100258.09
2024-03-12T08:30:10.699Z,100249.13
2024-03-12T08:32:38.341Z,100249.91
2024-03-12T08:35:06.635Z,100246.84
2024-03-12T08:37:38.338Z,100248.22
2024-03-12T08:40:08.779Z,100248.19
2024-03-12T08:42:44.733Z,100247.44
2024-03-12T08:45:25.078Z,100257.09
2024-03-12T08:47:52.586Z,100255.88
2024-03-12T08:50:20.040Z,100258.03
2024-03-12T08:52:47.542Z,100257.03
2024-03-12T08:55:15.299Z,100261.19
2024-03-12T08:57:43.289Z,100253.81
2024-03-12T09:00:14.547Z,100262.84
2024-03-12T09:02:43.607Z,100263.91
2024-03-12T09:05:11.179Z,100266.78
2024-03-12T09:07:39.032Z,100262.13
2024-03-12T09:10:13.207Z,100259.66
2024-03-12T09:12:42.395Z,100269.00
2024-03-12T09:15:11.316Z,100263.59
2024-03-12T09:17:39.927Z,100253.50
2024-03-12T09:20:12.791Z,100250.19
2024-03-12T09:22:40.963Z,100257.16
2024-03-12T09:25:10.289Z,100255.56
2024-03-12T09:27:38.103Z,100251.88
2024-03-12T09:30:08.673Z,100251.72
2024-03-12T09:32:36.147Z,100250.38
2024-03-12T09:35:06.598Z,100238.97
2024-03-12T09:37:37.521Z,100245.66
2024-03-12T09:40:09.083Z,100252.59
2024-03-12T09:42:37.997Z,100252.47
2024-03-12T09:45:08.286Z,100255.28
2024-03-12T09:47:36.822Z,100246.72
2024-03-12T09:50:12.198Z,100246.22
2024-03-12T09:52:42.639Z,100241.44
2024-03-12T09:55:12.461Z,100238.25
2024-03-12T09:57:39.957Z,100243.16
2024-03-12T10:00:13.004Z,100228.75
2024-03-12T10:02:40.467Z,100241.63
2024-03-12T10:05:11.190Z,100247.47
2024-03-12T10:08:00.182Z,100239.59
2024-03-12T10:10:28.823Z,100238.81
2024-03-12T10:12:56.393Z,100235.25
2024-03-12T10:15:24.356Z,100240.72
2024-03-12T10:17:59.308Z,100236.81
2024-03-12T10:20:26.724Z,100224.50
2024-03-12T10:23:06.070Z,100232.44
2024-03-12T10:25:36.185Z,100238.44
2024-03-12T10:28:08.357Z,100233.75
2024-03-12T10:30:37.103Z,100231.91
2024-03-12T10:33:18.393Z,100234.63
2024-03-12T10:35:47.076Z,100233.56
2024-03-12T10:38:25.022Z,100224.84
2024-03-12T10:40:56.858Z,100222.94
2024-03-12T10:43:25.538Z,100220.56
2024-03-12T10:45:53.229Z,100221.50
2024-03-12T10:48:22.207Z,100221.00
2024-03-12T10:50:50.301Z,100214.22
2024-03-12T10:53:19.251Z,100217.56
2024-03-12T10:55:46.704Z,100227.50
2024-03-12T10:58:16.981Z,100224.69
2024-03-12T11:00:45.934Z,100220.25
2024-03-12T11:03:15.061Z,100216.09
2024-03-12T11:05:44.475Z,100215.81
2024-03-12T11:08:15.357Z,100216.94
2024-03-12T11:10:45.248Z,100218.03
2024-03-12T11:13:17.340Z,100220.44
2024-03-12T11:15:44.771Z,100218.81
2024-03-12T11:18:12.439Z,100214.63
2024-03-12T11:20:40.876Z,100222.56
2024-03-12T11:23:09.585Z,100222.56
2024-03-12T11:25:49.798Z,100214.78
2024-03-12T11:28:22.127Z,100218.78
2024-03-12T11:31:01.142Z,100219.66
2024-03-12T11:33:46.712Z,100218.97
2024-03-12T11:36:27.508Z,100215.06
2024-03-12T11:38:55.677Z,100218.31
2024-03-12T11:41:23.122Z,100219.81
2024-03-12T11:43:51.916Z,100219.22
2024-03-12T11:46:41.035Z,100216.84
2024-03-12T11:53:26.952Z,100217.91
2024-03-12T11:56:01.041Z,100222.13
2024-03-12T11:58:32.904Z,100221.06
2024-03-12T12:01:03.653Z,100217.34
2024-03-12T12:03:31.200Z,100210.78
2024-03-12T12:05:59.649Z,100208.34
2024-03-12T12:08:27.490Z,100208.50
2024-03-12T12:11:02.687Z,100218.03
2024-03-12T12:13:30.886Z,100212.00
2024-03-12T12:16:02.301Z,100210.25
2024-03-12T12:18:32.263Z,100212.28
2024-03-12T12:21:03.957Z,100209.16
2024-03-12T12:23:31.458Z,100204.31
2024-03-12T12:25:59.706Z,100214.00
2024-03-12T12:28:27.894Z,100204.59
2024-03-12T12:31:02.293Z,100213.47
2024-03-12T12:33:33.559Z,100209.16
2024-03-12T12:36:09.587Z,100209.84
2024-03-12T12:38:40.348Z,100206.75
2024-03-12T12:41:08.231Z,100205.38
2024-03-12T12:43:35.778Z,100207.22
2024-03-12T12:46:06.999Z,100214.22
2024-03-12T12:48:36.790Z,100213.84
2024-03-12T12:51:05.197Z,100206.13
2024-03-12T12:53:32.552Z,100210.41
2024-03-12T12:56:02.544Z,100197.94
2024-03-12T12:58:32.909Z,100202.56
2024-03-12T13:01:02.268Z,100194.63
2024-03-12T13:03:39.316Z,100203.34
2024-03-12T13:06:17.085Z,100192.13
2024-03-12T13:08:47.077Z,100199.88
2024-03-12T13:11:19.717Z,100199.16
2024-03-12T13:13:49.175Z,100198.31
2024-03-12T13:16:19.381Z,100196.78
2024-03-12T13:18:49.562Z,100198.38
2024-03-12T13:21:19.663Z,100198.88
2024-03-12T13:23:48.007Z,100190.78
2024-03-12T13:26:16.570Z,100195.91
2024-03-12T13:28:44.980Z,100193.63
2024-03-12T13:31:13.453Z,100188.22
2024-03-12T13:33:41.728Z,100194.81
2024-03-12T13:36:11.447Z,100191.84
2024-03-12T13:38:41.089Z,100197.16
2024-03-12T13:41:08.955Z,100188.59
2024-03-12T13:43:37.402Z,100192.78
2024-03-12T13:46:08.252Z,100192.09
2024-03-12T13:48:41.404Z,100194.59
2024-03-12T13:51:14.087Z,100188.50
2024-03-12T13:53:41.962Z,100185.75
2024-03-12T13:56:11.353Z,100191.25
2024-03-12T13:58:41.735Z,100194.84
2024-03-12T14:01:13.975Z,100192.31
2024-03-12T14:03:41.726Z,100188.44
2024-03-12T14:06:10.820Z,100194.44
2024-03-12T14:08:38.545Z,100192.38
2024-03-12T14:11:05.793Z,100195.34
2024-03-12T14:13:33.437Z,100195.94
2024-03-12T14:16:00.974Z,100187.97
2024-03-12T14:18:28.556Z,100186.28
2024-03-12T14:20:56.444Z,100186.84
2024-03-12T14:23:25.507Z,100190.03
2024-03-12T14:25:52.953Z,100197.78
2024-03-12T14:28:21.553Z,100191.78
2024-03-12T14:30:49.745Z,100204.78
2024-03-12T14:33:17.437Z,100192.97
2024-03-12T14:35:45.302Z,100199.84
2024-03-12T14:38:13.354Z,100197.38
2024-03-12T14:40:42.801Z,100194.28
2024-03-12T14:43:12.283Z,100190.34
2024-03-12T14:45:40.024Z,100199.97
2024-03-12T14:48:09.361Z,100183.50
2024-03-12T14:50:38.094Z,100195.88
2024-03-12T14:53:05.739Z,100197.28
2024-03-12T14:55:33.337Z,100196.69
2024-03-12T14:58:02.349Z,100194.34
2024-03-12T15:00:29.924Z,100195.41
2024-03-12T15:02:57.291Z,100197.16
2024-03-12T15:05:24.959Z,100196.66
2024-03-12T15:07:52.252Z,100198.50
2024-03-12T15:10:19.723Z,100196.41
2024-03-12T15:12:47.377Z,100194.19
2024-03-12T15:15:16.336Z,100198.03
2024-03-12T15:17:46.335Z,100199.16
2024-03-12T15:20:16.737Z,100197.75
2024-03-12T15:22:44.844Z,100196.47
2024-03-12T15:25:13.328Z,100200.25
2024-03-12T15:27:43.359Z,100200.97
2024-03-12T15:30:12.959Z,100208.69
2024-03-12T15:32:42.970Z,100208.13
2024-03-12T15:35:12.167Z,100206.81
2024-03-12T15:37:39.693Z,100216.59
2024-03-12T15:40:10.394Z,100215.44
2024-03-12T15:42:41.011Z,100217.81
2024-03-12T15:45:11.772Z,100210.22
2024-03-12T15:47:41.117Z,100231.81
2024-03-12T15:50:13.483Z,100229.78
2024-03-12T15:52:40.852Z,100234.94
2024-03-12T15:55:14.085Z,100238.94
2024-03-12T15:57:42.263Z,100230.44
2024-03-12T16:00:15.148Z,100233.09
2024-03-12T16:02:43.253Z,100244.50
2024-03-12T16:05:12.419Z,100244.41
2024-03-12T16:07:42.827Z,100238.31
2024-03-12T16:10:11.094Z,100243.69
2024-03-12T16:12:42.880Z,100240.84
2024-03-12T16:15:13.881Z,100239.31
2024-03-12T16:17:41.496Z,100249.34
2024-03-12T16:20:14.473Z,100244.88
2024-03-12T16:22:44.222Z,100244.88
2024-03-12T16:25:12.018Z,100242.63
2024-03-12T16:27:40.945Z,100243.72
2024-03-12T16:30:11.861Z,100248.09
2024-03-12T16:32:41.489Z,100248.69
2024-03-12T16:35:09.826Z,100253.34
2024-03-12T16:37:40.179Z,100247.81
2024-03-12T16:40:10.564Z,100248.84
2024-03-12T16:42:38.533Z,100248.94
2024-03-12T16:45:07.421Z,100248.22
2024-03-12T16:47:35.029Z,100254.09
2024-03-12T16:50:09.567Z,100241.00
2024-03-12T16:52:37.385Z,100244.44
2024-03-12T16:55:06.007Z,100245.34
2024-03-12T16:57:37.862Z,100249.00
2024-03-12T17:00:11.992Z,100252.81
2024-03-12T17:02:43.594Z,100242.13
2024-03-12T17:05:14.134Z,100253.75
2024-03-12T17:07:42.739Z,100255.50
2024-03-12T17:10:10.978Z,100258.19
2024-03-12T17:12:41.463Z,100247.53
2024-03-12T17:15:10.526Z,100259.56
2024-03-12T17:17:42.540Z,100244.28
2024-03-12T17:20:11.561Z,100252.91
2024-03-12T17:22:41.104Z,100253.25
2024-03-12T17:25:11.617Z,100250.94
2024-03-12T17:27:42.721Z,100251.81
2024-03-12T17:30:12.305Z,100252.91
2024-03-12T17:32:41.960Z,100252.38
2024-03-12T17:35:12.858Z,100248.41
2024-03-12T17:37:42.814Z,100247.94
2024-03-12T17:40:15.707Z,100250.28
2024-03-12T17:42:46.176Z,100248.38
2024-03-12T17:45:15.297Z,100257.06
2024-03-12T17:47:48.622Z,100253.00
2024-03-12T17:50:19.235Z,100247.13
2024-03-12T17:52:51.384Z,100242.06
2024-03-12T17:55:21.076Z,100248.56
2024-03-12T17:57:52.432Z,100247.59
2024-03-12T18:00:23.516Z,100242.44
2024-03-12T18:02:51.542Z,100234.13
2024-03-12T18:05:23.257Z,100234.13
2024-03-12T18:07:53.533Z,100236.00
2024-03-12T18:10:28.278Z,100240.44
2024-03-12T18:12:57.885Z,100232.22
2024-03-12T18:15:25.819Z,100231.69
2024-03-12T18:17:54.284Z,100231.22
2024-03-12T18:20:31.200Z,100246.66
2024-03-12T18:22:59.808Z,100233.44
2024-03-12T18:25:27.379Z,100239.66
2024-03-12T18:27:57.586Z,100235.88
2024-03-12T18:30:26.124Z,100240.38
2024-03-12T18:32:55.730Z,100246.84
2024-03-12T18:35:23.312Z,100246.53
2024-03-12T18:37:52.052Z,100251.44
2024-03-12T18:40:21.012Z,100241.03
2024-03-12T18:42:49.769Z,100244.81
2024-03-12T18:45:19.961Z,100255.88
2024-03-12T18:47:52.214Z,100255.88
2024-03-12T18:50:22.065Z,100244.13
2024-03-12T18:52:50.505Z,100254.97
2024-03-12T18:55:19.507Z,100246.50
2024-03-12T18:57:47.590Z,100245.63
2024-03-12T19:00:20.104Z,100243.31
2024-03-12T19:02:51.722Z,100250.19
2024-03-12T19:05:21.670Z,100251.06
2024-03-12T19:07:51.832Z,100252.13
2024-03-12T19:10:20.950Z,100250.50
2024-03-12T19:12:49.410Z,100255.38
2024-03-12T19:15:22.317Z,100245.19
2024-03-12T19:17:52.975Z,100241.03
2024-03-12T19:20:23.549Z,100254.59
2024-03-12T19:22:54.832Z,100247.00
2024-03-12T19:25:23.310Z,100260.19
2024-03-12T19:27:52.342Z,100257.81
2024-03-12T19:30:21.073Z,100253.78
2024-03-12T19:32:51.771Z,100253.09
2024-03-12T19:35:20.458Z,100258.50
2024-03-12T19:37:49.749Z,100251.00
2024-03-12T19:40:18.264Z,100256.78
2024-03-12T19:42:48.773Z,100260.28
2024-03-12T19:45:21.216Z,100254.47
2024-03-12T19:47:50.289Z,100263.03
2024-03-12T19:50:25.892Z,100267.28
2024-03-12T19:52:54.395Z,100262.41
2024-03-12T19:55:26.272Z,100259.94
2024-03-12T19:57:57.992Z,100259.19
2024-03-12T20:00:27.360Z,100267.59
2024-03-12T20:02:57.974Z,100265.97
2024-03-12T20:05:28.708Z,100268.59
2024-03-12T20:07:57.148Z,100264.34
2024-03-12T20:10:26.668Z,100273.53
2024-03-12T20:12:56.602Z,100273.00
2024-03-12T20:15:24.907Z,100265.06
2024-03-12T20:17:52.899Z,100271.97
2024-03-12T20:20:22.536Z,100269.75
2024-03-12T20:22:54.810Z,100272.38
2024-03-12T20:25:23.448Z,100271.56
2024-03-12T20:27:54.756Z,100271.56
2024-03-12T20:30:28.401Z,100268.41
2024-03-12T20:32:59.825Z,100263.72
2024-03-12T20:35:29.277Z,100260.63
2024-03-12T20:37:58.979Z,100260.03
2024-03-12T20:40:27.088Z,100267.66
2024-03-12T20:43:00.219Z,100267.84
2024-03-12T20:45:28.168Z,100263.91
2024-03-12T20:47:55.933Z,100265.13
2024-03-12T20:50:23.410Z,100275.50
2024-03-12T20:52:51.632Z,100275.38
2024-03-12T20:55:22.323Z,100273.22
2024-03-12T20:57:49.944Z,100274.41
2024-03-12T21:00:19.462Z,100269.72
2024-03-12T21:02:48.837Z,100270.03
2024-03-12T21:05:16.869Z,100282.03
2024-03-12T21:07:45.097Z,100274.91
2024-03-12T21:10:12.981Z,100269.50
2024-03-12T21:12:49.747Z,100281.84
2024-03-12T21:15:17.967Z,100281.38
2024-03-12T21:17:46.160Z,100279.16
2024-03-12T21:20:15.528Z,100281.94
2024-03-12T21:22:43.023Z,100278.66
2024-03-12T21:25:11.831Z,100282.00
2024-03-12T21:27:39.374Z,100289.56
2024-03-12T21:30:15.423Z,100288.63
2024-03-12T21:32:44.338Z,100286.22
2024-03-12T21:35:13.281Z,100289.34
2024-03-12T21:37:40.781Z,100290.97
2024-03-12T21:40:12.815Z,100292.63
2024-03-12T21:42:43.920Z,100296.78
2024-03-12T21:45:16.683Z,100295.91
2024-03-12T21:47:46.844Z,100299.19
2024-03-12T21:50:15.871Z,100307.66
2024-03-12T21:52:44.225Z,100295.19
2024-03-12T21:55:12.526Z,100296.16
2024-03-12T21:57:44.755Z,100298.06
2024-03-12T22:00:25.369Z,100292.50
2024-03-12T22:02:53.590Z,100291.06
2024-03-12T22:05:21.503Z,100293.56
2024-03-12T22:07:50.870Z,100293.56
2024-03-12T22:10:19.137Z,100289.31
2024-03-12T22:12:46.667Z,100291.81
2024-03-12T22:15:16.420Z,100291.75
2024-03-12T22:17:45.644Z,100290.94
2024-03-12T22:20:20.005Z,100293.38
2024-03-12T22:22:48.727Z,100290.19
2024-03-12T22:25:17.834Z,100291.22
2024-03-12T22:27:47.129Z,100290.44
2024-03-12T22:30:18.090Z,100287.31
2024-03-12T22:32:46.680Z,100296.75
2024-03-12T22:35:15.042Z,100302.09
2024-03-12T22:37:44.870Z,100296.44
2024-03-12T22:40:13.893Z,100300.78
2024-03-12T22:42:42.071Z,100301.72
2024-03-12T22:45:12.709Z,100307.78
2024-03-12T22:47:42.313Z,100305.38
2024-03-12T22:50:11.478Z,100306.25
2024-03-12T22:52:40.236Z,100313.94
2024-03-12T22:55:09.069Z,100309.06
2024-03-12T22:57:39.879Z,100312.44
2024-03-12T23:00:31.688Z,100309.16
2024-03-12T23:03:03.208Z,100320.91
2024-03-12T23:05:41.894Z,100318.41
2024-03-12T23:08:12.768Z,100312.84
2024-03-12T23:10:41.872Z,100316.47
2024-03-12T23:13:14.944Z,100328.41
2024-03-12T23:15:44.070Z,100319.31
2024-03-12T23:18:13.380Z,100320.13
2024-03-12T23:20:41.725Z,100322.72
2024-03-12T23:23:09.244Z,100325.28
2024-03-12T23:25:37.576Z,100324.66
2024-03-12T23:28:05.607Z,100330.53
2024-03-12T23:30:36.021Z,100327.28
2024-03-12T23:33:03.640Z,100335.72
2024-03-12T23:35:34.364Z,100324.16
2024-03-12T23:38:03.726Z,100331.75
2024-03-12T23:40:31.609Z,100331.06
2024-03-12T23:42:59.152Z,100335.41
2024-03-12T23:45:27.687Z,100336.31
2024-03-12T23:47:55.200Z,100333.88
2024-03-12T23:50:22.573Z,100341.47
2024-03-12T23:52:51.891Z,100334.81
2024-03-12T23:55:20.571Z,100336.56
2024-03-12T23:57:49.869Z,100339.97
